Data for 03/06/2009

Time Sea-Level Adjusted Pressure Absolute Pressure Temperature Relative Humidity Dew Point   
(mb) (inHg) (mb) (inHg) (C) (F) (%) (C) (F)
00:05 1008 29.77 838 24.75 -1 30.2 44 -11.7 10.9
00:10 1008 29.77 837 24.72 -0.8 30.6 46 -10.9 12.3
00:15 1008 29.77 837 24.72 -0.9 30.4 50 -9.9 14.1
00:20 1008 29.77 837 24.72 -1.5 29.3 55 -9.4 15
00:25 1008 29.77 838 24.75 -1.9 28.6 54 -10.1 13.9
00:30 1008 29.77 837 24.72 -1.9 28.7 57 -9.3 15.3
00:35 1008 29.77 838 24.75 -1.9 28.5 55 -9.9 14.3
00:40 1008 29.77 837 24.72 -1.8 28.8 53 -10.2 13.7
00:45 1008 29.77 837 24.72 -1.6 29.1 56 -9.2 15.4
00:50 1008 29.77 837 24.72 -1.8 28.8 48 -11.3 11.7
00:55 1008 29.77 837 24.72 -1.5 29.3 49 -10.9 12.3
01:00 1008 29.77 837 24.72 -1.3 29.6 47 -11.1 12
01:05 1008 29.77 837 24.72 -1.2 29.8 47 -11.2 11.9
01:10 1008 29.77 837 24.72 -1.3 29.7 48 -10.9 12.4
01:15 1008 29.77 837 24.72 -1.3 29.7 47 -11.2 11.8
01:20 1008 29.77 837 24.72 -1.3 29.7 51 -10.1 13.9
01:25 1008 29.77 837 24.72 -1.6 29.1 50 -10.7 12.7
01:30 1008 29.77 837 24.72 -1.7 28.9 50 -10.8 12.6
01:35 1008 29.77 837 24.72 -1.9 28.6 51 -10.7 12.8
01:40 1008 29.77 837 24.72 -2.1 28.3 53 -10.5 13.2
01:45 1008 29.77 837 24.72 -2.2 28.1 52 -10.8 12.6
01:50 1008 29.77 837 24.72 -2 28.3 55 -9.9 14.1
01:55 1008 29.77 837 24.72 -2.2 28 56 -9.8 14.4
02:00 1008 29.77 837 24.72 -2.6 27.3 58 -9.7 14.6
02:05 1008 29.77 837 24.72 -2.7 27.2 59 -9.6 14.8
02:10 1008 29.77 837 24.72 -3 26.5 67 -8.4 16.9
02:15 1008 29.77 837 24.72 -3.4 25.9 65 -9.1 15.7
02:20 1008 29.77 837 24.72 -3.5 25.8 67 -8.7 16.3
02:25 1008 29.77 837 24.72 -3.7 25.4 69 -8.5 16.6
02:30 1008 29.77 837 24.72 -3.7 25.3 69 -8.6 16.4
02:35 1008 29.77 837 24.72 -3.7 25.3 69 -8.7 16.4
02:40 1008 29.77 837 24.72 -3.9 25 69 -8.7 16.3
02:45 1008 29.77 837 24.72 -4 24.9 69 -8.8 16.1
02:50 1008 29.77 837 24.72 -4 24.7 69 -8.8 16.1
02:55 1008 29.77 837 24.72 -4.4 24.1 72 -8.7 16.4
03:00 1008 29.77 838 24.75 -4.9 23.3 74 -8.8 16.2
03:05 1008 29.77 838 24.75 -5.5 22.2 78 -8.8 16.2
03:10 1008 29.77 838 24.75 -5.8 21.5 79 -8.9 15.9
03:15 1008 29.77 838 24.75 -6.2 20.9 79 -9.2 15.5
03:20 1008 29.77 838 24.75 -6.7 20 81 -9.4 15
03:25 1009 29.8 838 24.75 -7 19.4 81 -9.7 14.5
03:30 1009 29.8 838 24.75 -7.4 18.8 81 -10 13.9
03:35 1009 29.8 838 24.75 -7.7 18.1 82 -10.3 13.5
03:40 1009 29.8 838 24.75 -8.2 17.3 84 -10.5 13.1
03:45 1009 29.8 838 24.75 -8.4 16.9 84 -10.6 12.9
03:50 1009 29.8 838 24.75 -8.5 16.6 83 -11 12.2
03:55 1009 29.8 838 24.75 -8.7 16.3 83 -11.1 12
04:00 1009 29.8 839 24.78 -8.8 16.1 83 -11.2 11.9
04:05 1009 29.8 839 24.78 -8.9 16 83 -11.3 11.6
04:10 1009 29.8 839 24.78 -9.1 15.6 84 -11.4 11.5
04:15 1010 29.83 839 24.78 -9.3 15.2 84 -11.5 11.3
04:20 1010 29.83 839 24.78 -9.2 15.5 83 -11.6 11.2
04:25 1010 29.83 839 24.78 -9.2 15.5 82 -11.7 10.9
04:30 1010 29.83 839 24.78 -9.3 15.3 82 -11.9 10.6
04:35 1010 29.83 839 24.78 -9.4 15 82 -12 10.4
04:40 1010 29.83 839 24.78 -9.5 15 81 -12.1 10.2
04:45 1010 29.83 839 24.78 -9.4 15 81 -12.1 10.3
04:50 1010 29.83 839 24.78 -9.5 15 81 -12.2 10.1
04:55 1010 29.83 839 24.78 -9.5 15 82 -12.1 10.3
05:00 1010 29.83 839 24.78 -9.4 15.1 81 -12.1 10.2
05:05 1010 29.83 839 24.78 -9.4 15.1 79 -12.3 9.8
05:10 1010 29.83 839 24.78 -9.6 14.7 79 -12.6 9.4
05:15 1010 29.83 839 24.78 -9.8 14.3 80 -12.7 9.1
05:20 1010 29.83 840 24.81 -10 14 80 -12.9 8.8
05:25 1010 29.83 840 24.81 -10.2 13.7 80 -13 8.7
05:30 1010 29.83 840 24.81 -10.3 13.5 81 -13 8.7
05:35 1011 29.85 840 24.81 -10.4 13.3 81 -13 8.6
05:40 1011 29.85 840 24.81 -10.5 13.2 81 -13.1 8.5
05:45 1011 29.85 840 24.81 -10.5 13.1 81 -13.1 8.4
05:50 1011 29.85 840 24.81 -10.5 13.1 82 -13 8.6
05:55 1011 29.85 840 24.81 -10.5 13.1 81 -13.1 8.4
06:00 1011 29.85 840 24.81 -10.6 13 82 -13.1 8.3
06:05 1011 29.85 840 24.81 -10.7 12.8 81 -13.4 8
06:10 1011 29.85 840 24.81 -10.9 12.4 80 -13.7 7.4
06:15 1011 29.85 840 24.81 -11.2 11.9 82 -13.7 7.4
06:20 1011 29.85 840 24.81 -11.2 11.9 81 -13.8 7.2
06:25 1011 29.85 840 24.81 -11.3 11.7 82 -13.8 7.2
06:30 1011 29.85 840 24.81 -11.4 11.5 83 -13.8 7.2
06:35 1011 29.85 840 24.81 -11.5 11.4 83 -13.8 7.1
06:40 1011 29.85 840 24.81 -11.6 11.1 83 -13.9 6.9
06:45 1011 29.85 840 24.81 -11.7 11 84 -13.9 7
06:50 1011 29.85 840 24.81 -11.7 11 83 -14 6.8
06:55 1011 29.85 840 24.81 -11.6 11.2 83 -13.9 7
07:00 1011 29.85 840 24.81 -11.6 11.1 85 -13.7 7.3
07:05 1011 29.85 840 24.81 -11.6 11 84 -13.8 7.1
07:10 1011 29.85 841 24.83 -11.6 11.1 84 -13.7 7.3
07:15 1011 29.85 841 24.83 -11.5 11.3 84 -13.7 7.4
07:20 1012 29.88 841 24.83 -11.5 11.4 82 -13.9 7
07:25 1012 29.88 841 24.83 -11.6 11.2 82 -14.1 6.7
07:30 1012 29.88 841 24.83 -11.7 11 83 -14.1 6.7
07:35 1012 29.88 841 24.83 -11.7 10.9 82 -14.2 6.5
07:40 1012 29.88 841 24.83 -11.7 11 81 -14.2 6.4
07:45 1012 29.88 841 24.83 -11.7 11 82 -14.1 6.6
07:50 1012 29.88 841 24.83 -11.7 11 82 -14.2 6.5
07:55 1012 29.88 841 24.83 -11.5 11.3 81 -14.1 6.5
08:00 1012 29.88 841 24.83 -11.4 11.4 80 -14.2 6.5
08:05 1012 29.88 841 24.83 -11.4 11.6 80 -14.2 6.5
08:10 1012 29.88 841 24.83 -11.5 11.3 79 -14.4 6
08:15 1012 29.88 841 24.83 -11.6 11.1 81 -14.2 6.4
08:20 1012 29.88 841 24.83 -11.6 11.2 82 -14.1 6.6
08:25 1012 29.88 842 24.86 -11.5 11.3 81 -14.2 6.5
08:30 1012 29.88 842 24.86 -11.5 11.3 80 -14.3 6.3
08:35 1012 29.88 842 24.86 -11.5 11.4 79 -14.4 6
08:40 1013 29.91 842 24.86 -11.6 11.2 79 -14.4 6
08:45 1013 29.91 842 24.86 -11.4 11.5 78 -14.6 5.8
08:50 1013 29.91 842 24.86 -11 12.2 75 -14.6 5.8
08:55 1013 29.91 842 24.86 -10.6 12.9 74 -14.4 6.1
09:00 1013 29.91 842 24.86 -10.5 13.1 75 -14.1 6.6
09:05 1013 29.91 842 24.86 -10.4 13.3 73 -14.3 6.3
09:10 1013 29.91 842 24.86 -10.1 13.7 73 -14.2 6.5
09:15 1013 29.91 842 24.86 -9.9 14.3 71 -14.2 6.4
09:20 1013 29.91 842 24.86 -9.5 15 70 -14 6.9
09:25 1013 29.91 842 24.86 -9.4 15.2 70 -13.8 7.2
09:30 1013 29.91 842 24.86 -9.2 15.4 68 -14 6.7
09:35 1013 29.91 842 24.86 -9.5 15 70 -13.9 7
09:40 1013 29.91 842 24.86 -9.9 14.1 72 -14 6.8
09:45 1013 29.91 842 24.86 -10.1 13.8 72 -14.3 6.3
09:50 1013 29.91 842 24.86 -10.4 13.3 73 -14.4 6.1
09:55 1013 29.91 842 24.86 -10.6 13 75 -14.2 6.4
10:00 1013 29.91 843 24.89 -10.4 13.3 73 -14.4 6.1
10:05 1013 29.91 843 24.89 -10.6 12.9 74 -14.5 6
10:10 1013 29.91 843 24.89 -10.7 12.7 76 -14.3 6.3
10:15 1013 29.91 843 24.89 -10.7 12.8 75 -14.3 6.3
10:20 1013 29.91 843 24.89 -10.7 12.7 76 -14.2 6.5
10:25 1014 29.94 843 24.89 -10.7 12.8 77 -13.9 7
10:30 1014 29.94 843 24.89 -10.5 13 77 -13.9 7
10:35 1014 29.94 843 24.89 -10.5 13.1 76 -14 6.9
10:40 1014 29.94 843 24.89 -10.1 13.8 74 -13.9 7
10:45 1014 29.94 843 24.89 -9.8 14.3 74 -13.7 7.4
10:50 1014 29.94 843 24.89 -9.7 14.5 73 -13.7 7.3
10:55 1014 29.94 843 24.89 -9.7 14.5 72 -13.8 7.2
11:00 1014 29.94 843 24.89 -9.2 15.5 68 -14.1 6.7
11:05 1014 29.94 843 24.89 -9.1 15.5 68 -13.9 6.9
11:10 1014 29.94 843 24.89 -9.1 15.7 71 -13.5 7.8
11:15 1014 29.94 843 24.89 -9.3 15.2 70 -13.8 7.1
11:20 1014 29.94 843 24.89 -9.1 15.6 69 -13.7 7.3
11:25 1014 29.94 843 24.89 -9.1 15.7 68 -13.9 7
11:30 1014 29.94 843 24.89 -9.4 15.1 72 -13.5 7.7
11:35 1014 29.94 843 24.89 -9.6 14.6 75 -13.3 8
11:40 1014 29.94 843 24.89 -9.8 14.4 76 -13.3 8.1
11:45 1014 29.94 843 24.89 -9.6 14.7 72 -13.8 7.2
11:50 1014 29.94 843 24.89 -10.1 13.9 76 -13.6 7.5
11:55 1014 29.94 843 24.89 -9.9 14.2 75 -13.5 7.7
12:00 1014 29.94 843 24.89 -10.1 13.9 75 -13.7 7.4
12:05 1014 29.94 843 24.89 -10.2 13.6 75 -13.9 7
12:10 1014 29.94 843 24.89 -10.4 13.3 77 -13.6 7.5
12:15 1014 29.94 843 24.89 -10.5 13.1 77 -13.8 7.1
12:20 1014 29.94 843 24.89 -10.4 13.3 78 -13.6 7.6
12:25 1014 29.94 843 24.89 -9.9 14.1 75 -13.5 7.6
12:30 1014 29.94 843 24.89 -9.8 14.3 73 -13.8 7.2
12:35 1014 29.94 843 24.89 -9.9 14.2 75 -13.4 7.8
12:40 1014 29.94 843 24.89 -9.8 14.4 76 -13.3 8
12:45 1014 29.94 843 24.89 -9.2 15.4 73 -13.3 8.1
12:50 1014 29.94 843 24.89 -8.7 16.3 72 -13 8.6
12:55 1014 29.94 844 24.92 -8.7 16.4 72 -12.8 8.9
13:00 1014 29.94 843 24.89 -8.4 17 72 -12.5 9.5
13:05 1014 29.94 843 24.89 -8.6 16.6 72 -12.8 9
13:10 1014 29.94 843 24.89 -8.9 16.1 70 -13.4 7.9
13:15 1014 29.94 843 24.89 -9 15.8 72 -13.3 8.1
13:20 1014 29.94 843 24.89 -8.4 16.8 71 -12.8 8.9
13:25 1014 29.94 843 24.89 -7.2 19 62 -13.3 8.1
13:30 1014 29.94 843 24.89 -7.4 18.7 64 -13.1 8.4
13:35 1014 29.94 843 24.89 -8.9 16.1 68 -13.6 7.4
13:40 1014 29.94 843 24.89 -9.3 15.2 70 -13.9 7
13:45 1014 29.94 843 24.89 -8.5 16.7 64 -14.1 6.6
13:50 1014 29.94 843 24.89 -8.5 16.8 67 -13.6 7.6
13:55 1014 29.94 843 24.89 -9 15.8 68 -13.8 7.1
14:00 1014 29.94 843 24.89 -7.6 18.4 63 -13.5 7.6
14:05 1014 29.94 843 24.89 -8 17.5 66 -13.3 8
14:10 1014 29.94 843 24.89 -8.7 16.3 66 -13.9 6.9
14:15 1014 29.94 843 24.89 -8.8 16.1 67 -14 6.9
14:20 1014 29.94 843 24.89 -8.3 17 66 -13.5 7.6
14:25 1014 29.94 843 24.89 -7.7 18.2 65 -13.2 8.2
14:30 1014 29.94 843 24.89 -7.4 18.6 64 -13.1 8.4
14:35 1014 29.94 843 24.89 -7.4 18.6 62 -13.5 7.7
14:40 1014 29.94 843 24.89 -7.5 18.6 64 -13.3 8.1
14:45 1014 29.94 843 24.89 -7.2 19 63 -13.1 8.5
14:50 1014 29.94 843 24.89 -6.9 19.5 62 -13.1 8.4
14:55 1014 29.94 843 24.89 -7.3 18.8 64 -13.1 8.5
15:00 1014 29.94 843 24.89 -7.4 18.8 63 -13.3 8
15:05 1014 29.94 843 24.89 -6.6 20.1 62 -12.7 9.2
15:10 1014 29.94 843 24.89 -6.4 20.4 60 -13 8.6
15:15 1014 29.94 843 24.89 -6.2 20.9 58 -13.1 8.4
15:20 1014 29.94 843 24.89 -6.3 20.6 59 -13.1 8.5
15:25 1014 29.94 843 24.89 -5.8 21.5 56 -13.2 8.2
15:30 1014 29.94 843 24.89 -5.6 21.9 55 -13.3 8.1
15:35 1014 29.94 843 24.89 -5.7 21.7 58 -12.8 8.9
15:40 1014 29.94 843 24.89 -5.9 21.4 55 -13.4 7.8
15:45 1014 29.94 843 24.89 -5 22.9 54 -13 8.5
15:50 1014 29.94 843 24.89 -5.4 22.3 55 -13.1 8.4
15:55 1014 29.94 843 24.89 -5.6 21.9 56 -13.1 8.4
16:00 1014 29.94 843 24.89 -5.6 21.8 56 -13.2 8.2
16:05 1014 29.94 843 24.89 -5.5 22 55 -13.2 8.3
16:10 1014 29.94 843 24.89 -5.5 22 56 -12.9 8.7
16:15 1014 29.94 843 24.89 -6 21.3 58 -13 8.6
16:20 1014 29.94 843 24.89 -6 21.3 59 -12.8 8.9
16:25 1014 29.94 843 24.89 -5.7 21.7 56 -13.2 8.2
16:30 1014 29.94 843 24.89 -5.6 21.9 57 -12.9 8.7
16:35 1014 29.94 844 24.92 -5.7 21.7 56 -13.1 8.4
16:40 1014 29.94 843 24.89 -6.4 20.5 59 -13.1 8.4
16:45 1014 29.94 844 24.92 -7.3 18.8 62 -13.4 7.8
16:50 1014 29.94 844 24.92 -7.4 18.7 62 -13.5 7.7
16:55 1014 29.94 844 24.92 -7.4 18.7 62 -13.6 7.6
17:00 1014 29.94 843 24.89 -7.6 18.4 62 -13.6 7.5
17:05 1014 29.94 844 24.92 -7.8 17.9 62 -13.9 7
17:10 1014 29.94 844 24.92 -7.4 18.8 60 -13.9 7
17:15 1014 29.94 844 24.92 -7.3 18.8 61 -13.6 7.6
17:20 1014 29.94 844 24.92 -7.8 18.1 62 -13.8 7.2
17:25 1014 29.94 843 24.89 -7.8 17.9 63 -13.8 7.2
17:30 1014 29.94 843 24.89 -7.4 18.6 61 -13.8 7.2
17:35 1014 29.94 843 24.89 -7 19.3 61 -13.4 7.8
17:40 1014 29.94 843 24.89 -7 19.4 61 -13.3 8.1
17:45 1014 29.94 844 24.92 -7.3 18.9 62 -13.3 8
17:50 1014 29.94 843 24.89 -7.7 18.2 64 -13.3 8.1
17:55 1014 29.94 843 24.89 -7.7 18.2 63 -13.6 7.5
18:00 1014 29.94 844 24.92 -8 17.5 67 -13.1 8.4
18:05 1014 29.94 844 24.92 -8.4 16.9 68 -13.3 8
18:10 1014 29.94 844 24.92 -8.7 16.4 69 -13.4 7.8
18:15 1014 29.94 844 24.92 -8.9 15.9 71 -13.2 8.2
18:20 1014 29.94 843 24.89 -8.9 15.9 71 -13.3 8
18:25 1014 29.94 843 24.89 -9.2 15.5 71 -13.4 7.8
18:30 1014 29.94 844 24.92 -9.4 15.2 72 -13.5 7.8
18:35 1014 29.94 844 24.92 -9.7 14.6 76 -13.2 8.3
18:40 1014 29.94 844 24.92 -9.8 14.4 76 -13.2 8.2
18:45 1015 29.97 844 24.92 -10 14.1 78 -13.1 8.5
18:50 1015 29.97 844 24.92 -10.1 13.9 78 -13.2 8.2
18:55 1015 29.97 844 24.92 -10.1 13.7 79 -13.1 8.4
19:00 1015 29.97 844 24.92 -10.1 13.9 77 -13.4 7.9
19:05 1015 29.97 844 24.92 -10.1 13.9 77 -13.4 7.8
19:10 1015 29.97 844 24.92 -10.2 13.6 76 -13.7 7.3
19:15 1015 29.97 844 24.92 -10.3 13.5 76 -13.7 7.3
19:20 1015 29.97 844 24.92 -10.3 13.5 75 -13.9 7
19:25 1015 29.97 844 24.92 -10.5 13 75 -14.2 6.5
19:30 1015 29.97 844 24.92 -10.8 12.5 77 -14.2 6.5
19:35 1015 29.97 844 24.92 -11.1 12 78 -14.2 6.5
19:40 1015 29.97 844 24.92 -11.3 11.6 79 -14.3 6.2
19:45 1015 29.97 844 24.92 -11.5 11.4 79 -14.4 6.1
19:50 1015 29.97 844 24.92 -11.5 11.4 80 -14.3 6.3
19:55 1015 29.97 844 24.92 -11.3 11.7 79 -14.2 6.4
20:00 1015 29.97 844 24.92 -11.5 11.4 80 -14.3 6.3
20:05 1015 29.97 844 24.92 -11.7 10.9 80 -14.6 5.8
20:10 1015 29.97 845 24.95 -12 10.5 80 -14.7 5.6
20:15 1015 29.97 845 24.95 -12.1 10.2 81 -14.7 5.5
20:20 1015 29.97 845 24.95 -12.2 10.1 81 -14.8 5.4
20:25 1015 29.97 845 24.95 -12.3 9.9 82 -14.8 5.3
20:30 1015 29.97 845 24.95 -12.7 9.1 83 -15.1 4.8
20:35 1015 29.97 845 24.95 -13 8.7 86 -14.8 5.3
20:40 1015 29.97 845 24.95 -12.8 8.9 84 -15 5.1
20:45 1015 29.97 844 24.92 -13.1 8.5 84 -15.2 4.7
20:50 1015 29.97 844 24.92 -13 8.6 85 -15.1 4.9
20:55 1015 29.97 844 24.92 -12.7 9.1 84 -14.9 5.2
21:00 1015 29.97 844 24.92 -12.5 9.6 83 -14.9 5.3
21:05 1015 29.97 845 24.95 -12.2 10 84 -14.4 6.1
21:10 1015 29.97 845 24.95 -12.1 10.3 83 -14.3 6.2
21:15 1015 29.97 845 24.95 -12.3 9.8 81 -15 5.1
21:20 1015 29.97 845 24.95 -12.9 8.8 86 -14.8 5.3
21:25 1015 29.97 845 24.95 -12.9 8.8 85 -14.9 5.2
21:30 1015 29.97 845 24.95 -12.9 8.8 85 -14.9 5.1
21:35 1015 29.97 845 24.95 -13 8.7 84 -15.1 4.8
21:40 1015 29.97 845 24.95 -13.2 8.2 85 -15.2 4.6
21:45 1015 29.97 845 24.95 -13.9 7.1 89 -15.3 4.5
21:50 1015 29.97 844 24.92 -13.6 7.5 89 -15.1 4.9
21:55 1015 29.97 844 24.92 -13.3 8.2 91 -14.4 6
22:00 1015 29.97 844 24.92 -13 8.7 89 -14.4 6.1
22:05 1015 29.97 844 24.92 -13 8.7 88 -14.5 5.8
22:10 1015 29.97 844 24.92 -12.7 9.1 88 -14.3 6.3
22:15 1015 29.97 844 24.92 -12.5 9.6 89 -13.9 6.9
22:20 1015 29.97 844 24.92 -12 10.4 88 -13.6 7.6
22:25 1015 29.97 844 24.92 -11.9 10.5 85 -13.9 6.9
22:30 1015 29.97 844 24.92 -12.2 10.1 86 -14 6.8
22:35 1015 29.97 844 24.92 -12 10.4 88 -13.6 7.5
22:40 1015 29.97 844 24.92 -11.6 11.1 86 -13.5 7.7
22:45 1015 29.97 844 24.92 -11.6 11.1 85 -13.6 7.5
22:50 1015 29.97 844 24.92 -11.6 11.1 86 -13.5 7.7
22:55 1015 29.97 844 24.92 -11.6 11.2 87 -13.3 8.1
23:00 1015 29.97 844 24.92 -11.7 10.9 87 -13.4 7.9
23:05 1015 29.97 844 24.92 -12.1 10.2 87 -13.8 7.1
23:10 1015 29.97 844 24.92 -12.3 9.9 85 -14.2 6.4
23:15 1015 29.97 844 24.92 -12.4 9.6 87 -14.2 6.4
23:20 1015 29.97 844 24.92 -12.3 9.9 87 -14 6.9
23:25 1015 29.97 844 24.92 -11.7 10.9 85 -13.7 7.3
23:30 1015 29.97 844 24.92 -11.7 11 83 -14 6.9
23:35 1015 29.97 844 24.92 -12.1 10.2 84 -14.3 6.3
23:40 1015 29.97 844 24.92 -12.4 9.7 85 -14.4 6.1
23:45 1015 29.97 844 24.92 -12.4 9.7 84 -14.5 5.8
23:50 1015 29.97 844 24.92 -12.1 10.1 84 -14.3 6.2
23:55 1015 29.97 844 24.92 -11.7 10.9 82 -14.3 6.3
24:00 1015 29.97 844 24.92 -11.8 10.8 82 -14.3 6.3